createdAt,value
2022-10-01T00:03:38.460Z,8.90
2022-10-01T00:08:23.317Z,8.90
2022-10-01T00:13:06.750Z,8.90
2022-10-01T00:17:50.304Z,8.70
2022-10-01T00:22:34.885Z,8.50
2022-10-01T00:27:19.821Z,8.20
2022-10-01T00:32:03.357Z,8.10
2022-10-01T00:36:47.240Z,8.00
2022-10-01T01:11:58.056Z,7.50
2022-10-01T01:16:50.961Z,7.40
2022-10-01T01:21:36.849Z,7.40
2022-10-01T01:26:33.386Z,7.40
2022-10-01T01:31:23.350Z,7.40
2022-10-01T01:36:11.444Z,7.40
2022-10-01T01:40:56.824Z,7.60
2022-10-01T01:45:41.943Z,7.70
2022-10-01T01:50:29.147Z,7.80
2022-10-01T01:55:12.915Z,7.80
2022-10-01T01:59:56.470Z,8.10
2022-10-01T02:04:44.444Z,8.00
2022-10-01T02:09:35.359Z,7.80
2022-10-01T02:14:29.105Z,7.70
2022-10-01T02:19:21.272Z,7.60
2022-10-01T02:24:11.527Z,7.50
2022-10-01T02:28:59.687Z,7.50
2022-10-01T02:33:44.211Z,7.50
2022-10-01T02:38:29.729Z,7.50
2022-10-01T02:43:18.625Z,7.60
2022-10-01T02:48:07.326Z,7.60
2022-10-01T02:52:56.948Z,7.30
2022-10-01T02:57:40.450Z,7.40
2022-10-01T03:02:24.202Z,7.50
2022-10-01T03:07:09.142Z,7.60
2022-10-01T03:11:52.613Z,7.50
2022-10-01T03:16:36.023Z,7.50
2022-10-01T03:21:19.493Z,7.40
2022-10-01T03:26:04.319Z,7.30
2022-10-01T03:30:47.743Z,7.50
2022-10-01T03:35:32.503Z,7.50
2022-10-01T03:40:16.081Z,7.60
2022-10-01T03:45:00.983Z,7.60
2022-10-01T03:49:44.365Z,7.70
2022-10-01T03:54:27.779Z,7.70
2022-10-01T03:59:12.037Z,7.80
2022-10-01T04:03:56.858Z,7.90
2022-10-01T04:08:40.442Z,8.10
2022-10-01T04:13:23.937Z,7.90
2022-10-01T04:18:07.694Z,7.90
2022-10-01T04:22:53.308Z,7.80
2022-10-01T04:27:36.737Z,7.60
2022-10-01T04:32:20.667Z,7.50
2022-10-01T04:37:04.121Z,7.60
2022-10-01T04:41:49.558Z,7.50
2022-10-01T04:46:33.075Z,7.70
2022-10-01T04:51:17.062Z,7.70
2022-10-01T04:56:00.498Z,7.70
2022-10-01T05:00:45.456Z,7.70
2022-10-01T05:05:29.436Z,7.70
2022-10-01T05:10:14.870Z,7.70
2022-10-01T05:14:58.650Z,7.70
2022-10-01T05:19:43.644Z,7.70
2022-10-01T05:24:27.223Z,7.80
2022-10-01T05:29:10.978Z,7.80
2022-10-01T05:33:54.410Z,7.80
2022-10-01T05:38:39.267Z,8.00
2022-10-01T05:43:22.676Z,8.10
2022-10-01T05:48:07.509Z,8.20
2022-10-01T05:52:54.845Z,8.20
2022-10-01T05:57:40.152Z,8.00
2022-10-01T06:02:23.612Z,8.10
2022-10-01T06:07:07.084Z,8.10
2022-10-01T06:11:50.726Z,8.10
2022-10-01T06:16:35.820Z,8.20
2022-10-01T06:21:19.448Z,8.30
2022-10-01T06:26:05.772Z,8.40
2022-10-01T06:30:50.193Z,8.30
2022-10-01T06:35:36.377Z,8.30
2022-10-01T06:40:19.788Z,8.40
2022-10-01T06:45:03.263Z,8.50
2022-10-01T06:49:47.787Z,8.60
2022-10-01T06:54:32.773Z,8.70
2022-10-01T06:59:16.183Z,8.80
2022-10-01T07:03:59.785Z,8.80
2022-10-01T07:08:43.724Z,9.00
2022-10-01T07:13:28.617Z,9.10
2022-10-01T07:18:12.669Z,9.20
2022-10-01T07:22:59.098Z,9.30
2022-10-01T07:27:42.937Z,9.30
2022-10-01T07:32:27.984Z,9.30
2022-10-01T07:37:11.867Z,9.40
2022-10-01T07:41:55.435Z,9.50
2022-10-01T07:46:38.937Z,9.50
2022-10-01T07:51:24.752Z,9.50
2022-10-01T07:56:08.267Z,9.50
2022-10-01T08:00:56.297Z,9.60
2022-10-01T08:05:42.589Z,9.70
2022-10-01T08:10:27.506Z,9.90
2022-10-01T08:15:12.289Z,10.00
2022-10-01T08:19:55.756Z,9.90
2022-10-01T08:24:40.064Z,9.90
2022-10-01T08:29:24.929Z,10.10
2022-10-01T08:34:08.438Z,10.10
2022-10-01T08:38:52.257Z,10.10
2022-10-01T08:43:38.631Z,10.10
2022-10-01T08:48:33.501Z,10.20
2022-10-01T08:53:31.591Z,10.10
2022-10-01T08:58:22.266Z,10.10
2022-10-01T09:03:09.136Z,10.10
2022-10-01T09:08:12.436Z,10.10
2022-10-01T09:13:12.238Z,10.10
2022-10-01T09:18:08.879Z,10.00
2022-10-01T09:23:03.152Z,10.10
2022-10-01T09:27:47.476Z,10.00
2022-10-01T09:32:37.416Z,9.90
2022-10-01T09:37:29.116Z,9.90
2022-10-01T09:42:13.980Z,9.90
2022-10-01T09:46:58.033Z,9.80
2022-10-01T09:51:46.723Z,9.80
2022-10-01T09:56:35.304Z,9.90
2022-10-01T10:01:26.450Z,9.90
2022-10-01T10:06:10.418Z,10.00
2022-10-01T10:10:58.581Z,10.20
2022-10-01T10:15:51.649Z,10.20
2022-10-01T10:20:40.570Z,10.20
2022-10-01T10:25:26.164Z,10.20
2022-10-01T10:30:17.099Z,10.30
2022-10-01T10:35:04.962Z,10.20
2022-10-01T10:39:52.411Z,10.30
2022-10-01T10:44:39.951Z,10.20
2022-10-01T10:49:28.209Z,10.20
2022-10-01T10:54:24.421Z,10.30
2022-10-01T10:59:09.661Z,10.40
2022-10-01T11:03:56.323Z,10.40
2022-10-01T11:08:40.851Z,10.30
2022-10-01T11:13:54.377Z,10.30
2022-10-01T11:18:52.973Z,10.30
2022-10-01T11:23:59.969Z,10.40
2022-10-01T11:28:55.160Z,10.50
2022-10-01T11:33:53.185Z,10.70
2022-10-01T11:38:52.532Z,10.60
2022-10-01T11:43:41.927Z,10.80
2022-10-01T11:48:30.509Z,10.70
2022-10-01T11:53:22.919Z,10.70
2022-10-01T11:58:31.037Z,10.60
2022-10-01T12:03:20.176Z,10.60
2022-10-01T12:08:09.492Z,10.60
2022-10-01T12:13:00.353Z,10.60
2022-10-01T12:17:52.706Z,10.50
2022-10-01T12:22:39.091Z,10.60
2022-10-01T12:27:44.530Z,10.70
2022-10-01T12:32:39.519Z,10.70
2022-10-01T12:37:35.612Z,10.60
2022-10-01T12:42:48.424Z,10.70
2022-10-01T12:47:44.000Z,10.70
2022-10-01T12:52:37.054Z,10.60
2022-10-01T12:57:37.240Z,10.70
2022-10-01T13:02:49.871Z,10.70
2022-10-01T13:07:47.030Z,10.70
2022-10-01T13:12:55.132Z,10.90
2022-10-01T13:17:46.402Z,10.80
2022-10-01T13:22:37.246Z,11.00
2022-10-01T13:27:28.653Z,11.10
2022-10-01T13:32:33.415Z,11.20
2022-10-01T13:37:20.271Z,11.20
2022-10-01T13:42:07.487Z,11.20
2022-10-01T13:46:53.508Z,11.30
2022-10-01T13:51:38.821Z,11.20
2022-10-01T13:56:31.991Z,11.40
2022-10-01T14:01:30.977Z,11.40
2022-10-01T14:06:21.045Z,11.30
2022-10-01T14:11:28.230Z,11.10
2022-10-01T14:16:13.768Z,11.00
2022-10-01T14:21:07.330Z,10.80
2022-10-01T14:25:57.845Z,10.80
2022-10-01T14:30:50.590Z,10.70
2022-10-01T14:35:39.779Z,10.60
2022-10-01T14:40:25.144Z,10.70
2022-10-01T14:45:17.274Z,10.80
2022-10-01T14:50:11.251Z,10.70
2022-10-01T14:55:03.762Z,10.70
2022-10-01T14:59:49.280Z,10.80
2022-10-01T15:04:32.890Z,10.80
2022-10-01T15:09:19.350Z,10.80
2022-10-01T15:14:07.368Z,10.90
2022-10-01T15:18:54.633Z,10.90
2022-10-01T15:23:41.616Z,10.90
2022-10-01T15:28:32.199Z,10.90
2022-10-01T15:33:28.024Z,10.90
2022-10-01T15:38:12.845Z,10.90
2022-10-01T15:43:22.125Z,10.90
2022-10-01T15:48:05.785Z,11.00
2022-10-01T15:53:02.321Z,10.90
2022-10-01T15:57:46.739Z,11.00
2022-10-01T16:02:32.549Z,11.00
2022-10-01T16:07:21.482Z,10.90
2022-10-01T16:12:19.486Z,11.00
2022-10-01T16:17:28.291Z,10.90
2022-10-01T16:22:16.482Z,11.00
2022-10-01T16:27:02.227Z,10.90
2022-10-01T16:31:47.722Z,10.90
2022-10-01T16:36:34.481Z,10.90
2022-10-01T16:41:23.633Z,11.00
2022-10-01T16:46:07.442Z,10.90
2022-10-01T16:50:53.880Z,10.90
2022-10-01T16:55:38.136Z,11.00
2022-10-01T17:00:23.244Z,10.90
2022-10-01T17:05:14.490Z,11.00
2022-10-01T17:09:59.410Z,11.00
2022-10-01T17:14:43.002Z,11.00
2022-10-01T17:19:26.998Z,11.00
2022-10-01T17:24:11.656Z,11.00
2022-10-01T17:28:56.600Z,11.00
2022-10-01T17:33:40.250Z,11.00
2022-10-01T17:38:24.160Z,11.00
2022-10-01T17:43:07.785Z,11.00
2022-10-01T17:47:52.680Z,11.00
2022-10-01T17:52:36.127Z,11.00
2022-10-01T17:57:19.789Z,11.00
2022-10-01T18:02:13.875Z,11.00
2022-10-01T18:07:08.839Z,11.10
2022-10-01T18:11:52.390Z,11.10
2022-10-01T18:16:36.632Z,11.10
2022-10-01T18:21:20.251Z,11.10
2022-10-01T18:26:05.783Z,11.10
2022-10-01T18:30:49.626Z,11.10
2022-10-01T18:35:36.737Z,11.10
2022-10-01T18:40:22.375Z,11.10
2022-10-01T18:45:15.174Z,11.10
2022-10-01T18:50:14.494Z,11.10
2022-10-01T18:55:30.576Z,11.10
2022-10-01T19:00:18.022Z,11.10
2022-10-01T19:05:26.979Z,11.10
2022-10-01T19:10:21.142Z,11.10
2022-10-01T19:15:23.022Z,11.20
2022-10-01T19:20:18.139Z,11.10
2022-10-01T19:25:13.942Z,11.20
2022-10-01T19:30:07.806Z,11.20
2022-10-01T19:34:58.057Z,11.20
2022-10-01T19:39:45.124Z,11.20
2022-10-01T19:44:33.855Z,11.20
2022-10-01T19:49:22.663Z,11.20
2022-10-01T19:54:16.581Z,11.20
2022-10-01T19:59:03.424Z,11.20
2022-10-01T20:03:52.659Z,11.20
2022-10-01T20:08:41.081Z,11.20
2022-10-01T20:14:01.044Z,11.20
2022-10-01T20:18:52.699Z,11.30
2022-10-01T20:23:47.022Z,11.30
2022-10-01T20:28:37.674Z,11.30
2022-10-01T20:33:30.093Z,11.30
2022-10-01T20:38:20.359Z,11.30
2022-10-01T20:43:08.356Z,11.40
2022-10-01T20:47:58.195Z,11.50
2022-10-01T20:52:48.795Z,11.70
2022-10-01T20:57:35.895Z,12.10
2022-10-01T21:02:33.779Z,12.20
2022-10-01T21:07:29.286Z,12.20
2022-10-01T21:12:21.551Z,12.20
2022-10-01T21:17:20.474Z,12.20
2022-10-01T21:22:17.497Z,12.20
2022-10-01T21:27:10.705Z,12.30
2022-10-01T21:32:08.895Z,12.20
2022-10-01T21:37:05.306Z,12.30
2022-10-01T21:42:01.799Z,12.30
2022-10-01T21:46:53.442Z,12.40
2022-10-01T21:51:52.410Z,12.40
2022-10-01T21:56:58.026Z,12.50
2022-10-01T22:02:01.943Z,12.50
2022-10-01T22:06:53.537Z,12.50
2022-10-01T22:11:40.655Z,12.50
2022-10-01T22:16:26.665Z,12.50
2022-10-01T22:21:13.351Z,12.50
2022-10-01T22:26:01.807Z,12.40
2022-10-01T22:30:48.010Z,12.20
2022-10-01T22:35:35.448Z,12.00
2022-10-01T22:40:25.833Z,12.10
2022-10-01T22:45:16.858Z,12.10
2022-10-01T22:50:24.026Z,12.10
2022-10-01T22:55:22.629Z,12.30
2022-10-01T23:00:10.252Z,12.30
2022-10-01T23:05:09.788Z,12.20
2022-10-01T23:10:00.757Z,12.10
2022-10-01T23:14:56.654Z,12.20
2022-10-01T23:19:48.883Z,12.10
2022-10-01T23:24:45.662Z,12.10
2022-10-01T23:29:54.891Z,12.10
2022-10-01T23:34:44.521Z,12.00
2022-10-01T23:39:51.212Z,12.00
2022-10-01T23:44:41.028Z,12.00
2022-10-01T23:49:28.777Z,12.20
2022-10-01T23:54:20.022Z,12.20
2022-10-01T23:59:13.574Z,12.30
